sensor_id;sensor_type;location;lat;lon;timestamp;P1;durP1;ratioP1;P2;durP2;ratioP2
17566;SDS011;8901;52.088;5.084;2023-06-04T00:01:48;11.53;;;10.63;;
17566;SDS011;8901;52.088;5.084;2023-06-04T00:04:17;11.23;;;10.33;;
17566;SDS011;8901;52.088;5.084;2023-06-04T00:06:45;11.37;;;10.40;;
17566;SDS011;8901;52.088;5.084;2023-06-04T00:09:14;10.97;;;10.27;;
17566;SDS011;8901;52.088;5.084;2023-06-04T00:11:47;10.97;;;10.27;;
17566;SDS011;8901;52.088;5.084;2023-06-04T00:14:17;11.60;;;10.90;;
17566;SDS011;8901;52.088;5.084;2023-06-04T00:16:46;11.13;;;10.43;;
17566;SDS011;8901;52.088;5.084;2023-06-04T00:19:13;11.47;;;10.47;;
17566;SDS011;8901;52.088;5.084;2023-06-04T00:21:41;11.30;;;10.50;;
17566;SDS011;8901;52.088;5.084;2023-06-04T00:24:09;11.20;;;10.40;;
17566;SDS011;8901;52.088;5.084;2023-06-04T00:26:39;11.33;;;10.53;;
17566;SDS011;8901;52.088;5.084;2023-06-04T00:29:10;11.60;;;10.80;;
17566;SDS011;8901;52.088;5.084;2023-06-04T00:31:40;11.23;;;10.43;;
17566;SDS011;8901;52.088;5.084;2023-06-04T00:34:09;11.20;;;10.20;;
17566;SDS011;8901;52.088;5.084;2023-06-04T00:36:39;10.80;;;10.03;;
17566;SDS011;8901;52.088;5.084;2023-06-04T00:39:06;11.03;;;10.33;;
17566;SDS011;8901;52.088;5.084;2023-06-04T00:41:35;10.90;;;10.10;;
17566;SDS011;8901;52.088;5.084;2023-06-04T00:44:08;11.07;;;10.30;;
17566;SDS011;8901;52.088;5.084;2023-06-04T00:46:38;11.17;;;10.27;;
17566;SDS011;8901;52.088;5.084;2023-06-04T00:49:05;10.63;;;9.93;;
17566;SDS011;8901;52.088;5.084;2023-06-04T00:51:38;10.97;;;10.27;;
17566;SDS011;8901;52.088;5.084;2023-06-04T00:54:14;11.70;;;10.80;;
17566;SDS011;8901;52.088;5.084;2023-06-04T00:56:43;10.80;;;10.10;;
17566;SDS011;8901;52.088;5.084;2023-06-04T01:07:43;10.70;;;10.10;;
17566;SDS011;8901;52.088;5.084;2023-06-04T01:19:18;10.37;;;9.67;;
17566;SDS011;8901;52.088;5.084;2023-06-04T01:36:04;9.80;;;9.20;;
17566;SDS011;8901;52.088;5.084;2023-06-04T01:38:34;9.63;;;9.00;;
17566;SDS011;8901;52.088;5.084;2023-06-04T01:41:16;9.47;;;8.83;;
17566;SDS011;8901;52.088;5.084;2023-06-04T01:43:57;9.27;;;8.70;;
17566;SDS011;8901;52.088;5.084;2023-06-04T01:46:37;9.27;;;8.57;;
17566;SDS011;8901;52.088;5.084;2023-06-04T01:49:07;9.23;;;8.50;;
17566;SDS011;8901;52.088;5.084;2023-06-04T01:51:37;8.97;;;8.13;;
17566;SDS011;8901;52.088;5.084;2023-06-04T01:54:06;7.90;;;6.90;;
17566;SDS011;8901;52.088;5.084;2023-06-04T01:56:36;7.67;;;7.23;;
17566;SDS011;8901;52.088;5.084;2023-06-04T01:59:07;7.70;;;7.20;;
17566;SDS011;8901;52.088;5.084;2023-06-04T02:01:37;7.53;;;7.03;;
17566;SDS011;8901;52.088;5.084;2023-06-04T02:04:05;8.03;;;7.53;;
17566;SDS011;8901;52.088;5.084;2023-06-04T02:06:33;7.93;;;7.33;;
17566;SDS011;8901;52.088;5.084;2023-06-04T02:09:04;8.03;;;7.50;;
17566;SDS011;8901;52.088;5.084;2023-06-04T02:11:37;7.73;;;7.23;;
17566;SDS011;8901;52.088;5.084;2023-06-04T02:14:05;7.67;;;7.13;;
17566;SDS011;8901;52.088;5.084;2023-06-04T02:16:33;7.40;;;6.90;;
17566;SDS011;8901;52.088;5.084;2023-06-04T02:19:00;7.87;;;7.27;;
17566;SDS011;8901;52.088;5.084;2023-06-04T02:21:28;7.87;;;7.30;;
17566;SDS011;8901;52.088;5.084;2023-06-04T02:23:56;7.70;;;7.10;;
17566;SDS011;8901;52.088;5.084;2023-06-04T02:26:25;8.30;;;7.60;;
17566;SDS011;8901;52.088;5.084;2023-06-04T02:28:52;7.97;;;7.37;;
17566;SDS011;8901;52.088;5.084;2023-06-04T02:31:19;8.60;;;7.90;;
17566;SDS011;8901;52.088;5.084;2023-06-04T02:33:46;7.60;;;7.10;;
17566;SDS011;8901;52.088;5.084;2023-06-04T02:39:00;7.63;;;7.17;;
17566;SDS011;8901;52.088;5.084;2023-06-04T02:41:29;8.00;;;7.30;;
17566;SDS011;8901;52.088;5.084;2023-06-04T02:43:57;7.80;;;7.20;;
17566;SDS011;8901;52.088;5.084;2023-06-04T02:49:28;7.23;;;6.67;;
17566;SDS011;8901;52.088;5.084;2023-06-04T02:51:55;6.67;;;6.27;;
17566;SDS011;8901;52.088;5.084;2023-06-04T02:54:22;7.10;;;6.40;;
17566;SDS011;8901;52.088;5.084;2023-06-04T02:56:51;6.70;;;6.20;;
17566;SDS011;8901;52.088;5.084;2023-06-04T02:59:18;7.43;;;6.80;;
17566;SDS011;8901;52.088;5.084;2023-06-04T03:01:45;6.67;;;6.27;;
17566;SDS011;8901;52.088;5.084;2023-06-04T03:04:13;7.20;;;6.57;;
17566;SDS011;8901;52.088;5.084;2023-06-04T03:06:40;6.60;;;6.10;;
17566;SDS011;8901;52.088;5.084;2023-06-04T03:09:10;6.43;;;5.83;;
17566;SDS011;8901;52.088;5.084;2023-06-04T03:11:37;6.47;;;6.03;;
17566;SDS011;8901;52.088;5.084;2023-06-04T03:14:06;6.33;;;5.83;;
17566;SDS011;8901;52.088;5.084;2023-06-04T03:16:33;6.40;;;5.90;;
17566;SDS011;8901;52.088;5.084;2023-06-04T03:19:00;6.47;;;5.90;;
17566;SDS011;8901;52.088;5.084;2023-06-04T03:21:28;7.10;;;5.80;;
17566;SDS011;8901;52.088;5.084;2023-06-04T03:23:55;7.33;;;5.97;;
17566;SDS011;8901;52.088;5.084;2023-06-04T03:26:22;6.30;;;5.90;;
17566;SDS011;8901;52.088;5.084;2023-06-04T03:28:49;7.17;;;6.20;;
17566;SDS011;8901;52.088;5.084;2023-06-04T03:31:21;6.93;;;6.30;;
17566;SDS011;8901;52.088;5.084;2023-06-04T03:33:48;6.87;;;6.37;;
17566;SDS011;8901;52.088;5.084;2023-06-04T03:36:16;7.10;;;6.50;;
17566;SDS011;8901;52.088;5.084;2023-06-04T03:38:45;6.73;;;6.23;;
17566;SDS011;8901;52.088;5.084;2023-06-04T03:41:12;6.50;;;6.03;;
17566;SDS011;8901;52.088;5.084;2023-06-04T03:43:39;7.10;;;6.50;;
17566;SDS011;8901;52.088;5.084;2023-06-04T03:46:06;7.50;;;6.90;;
17566;SDS011;8901;52.088;5.084;2023-06-04T03:48:35;7.03;;;6.40;;
17566;SDS011;8901;52.088;5.084;2023-06-04T03:51:02;7.50;;;6.80;;
17566;SDS011;8901;52.088;5.084;2023-06-04T03:53:29;6.47;;;5.97;;
17566;SDS011;8901;52.088;5.084;2023-06-04T03:55:56;6.57;;;6.17;;
17566;SDS011;8901;52.088;5.084;2023-06-04T03:58:24;6.67;;;6.23;;
17566;SDS011;8901;52.088;5.084;2023-06-04T04:00:53;9.67;;;6.60;;
17566;SDS011;8901;52.088;5.084;2023-06-04T04:03:22;7.57;;;6.87;;
17566;SDS011;8901;52.088;5.084;2023-06-04T04:05:50;7.10;;;6.57;;
17566;SDS011;8901;52.088;5.084;2023-06-04T04:08:17;6.93;;;6.40;;
17566;SDS011;8901;52.088;5.084;2023-06-04T04:10:46;7.27;;;6.47;;
17566;SDS011;8901;52.088;5.084;2023-06-04T04:13:13;6.93;;;6.33;;
17566;SDS011;8901;52.088;5.084;2023-06-04T04:15:40;6.90;;;6.30;;
17566;SDS011;8901;52.088;5.084;2023-06-04T04:18:07;7.93;;;6.23;;
17566;SDS011;8901;52.088;5.084;2023-06-04T04:20:35;7.37;;;6.80;;
17566;SDS011;8901;52.088;5.084;2023-06-04T04:23:04;7.43;;;6.83;;
17566;SDS011;8901;52.088;5.084;2023-06-04T04:25:33;6.97;;;6.37;;
17566;SDS011;8901;52.088;5.084;2023-06-04T04:28:01;7.40;;;6.90;;
17566;SDS011;8901;52.088;5.084;2023-06-04T04:30:31;7.63;;;6.87;;
17566;SDS011;8901;52.088;5.084;2023-06-04T04:33:00;7.37;;;6.70;;
17566;SDS011;8901;52.088;5.084;2023-06-04T04:35:27;8.60;;;7.17;;
17566;SDS011;8901;52.088;5.084;2023-06-04T04:37:57;7.80;;;7.07;;
17566;SDS011;8901;52.088;5.084;2023-06-04T04:40:29;7.93;;;6.60;;
17566;SDS011;8901;52.088;5.084;2023-06-04T04:42:57;7.03;;;6.40;;
17566;SDS011;8901;52.088;5.084;2023-06-04T04:45:24;6.40;;;6.00;;
17566;SDS011;8901;52.088;5.084;2023-06-04T04:47:52;7.57;;;6.90;;
17566;SDS011;8901;52.088;5.084;2023-06-04T04:50:19;6.43;;;5.80;;
17566;SDS011;8901;52.088;5.084;2023-06-04T04:52:46;6.73;;;6.13;;
17566;SDS011;8901;52.088;5.084;2023-06-04T04:55:13;6.73;;;6.13;;
17566;SDS011;8901;52.088;5.084;2023-06-04T04:57:42;6.43;;;5.90;;
17566;SDS011;8901;52.088;5.084;2023-06-04T05:00:10;8.97;;;5.97;;
17566;SDS011;8901;52.088;5.084;2023-06-04T05:02:37;8.83;;;5.43;;
17566;SDS011;8901;52.088;5.084;2023-06-04T05:05:04;6.90;;;5.50;;
17566;SDS011;8901;52.088;5.084;2023-06-04T05:07:32;6.10;;;5.60;;
17566;SDS011;8901;52.088;5.084;2023-06-04T05:09:59;8.13;;;5.37;;
17566;SDS011;8901;52.088;5.084;2023-06-04T05:12:26;7.13;;;5.60;;
17566;SDS011;8901;52.088;5.084;2023-06-04T05:14:55;6.63;;;5.67;;
17566;SDS011;8901;52.088;5.084;2023-06-04T05:17:22;6.10;;;5.50;;
17566;SDS011;8901;52.088;5.084;2023-06-04T05:19:55;6.53;;;5.37;;
17566;SDS011;8901;52.088;5.084;2023-06-04T05:22:30;5.10;;;4.63;;
17566;SDS011;8901;52.088;5.084;2023-06-04T05:24:58;5.67;;;5.00;;
17566;SDS011;8901;52.088;5.084;2023-06-04T05:27:25;5.37;;;4.60;;
17566;SDS011;8901;52.088;5.084;2023-06-04T05:29:53;4.70;;;4.30;;
17566;SDS011;8901;52.088;5.084;2023-06-04T05:32:21;6.77;;;4.60;;
17566;SDS011;8901;52.088;5.084;2023-06-04T05:34:49;7.73;;;4.30;;
17566;SDS011;8901;52.088;5.084;2023-06-04T05:37:16;7.20;;;4.43;;
17566;SDS011;8901;52.088;5.084;2023-06-04T05:39:43;5.20;;;4.27;;
17566;SDS011;8901;52.088;5.084;2023-06-04T05:42:10;4.67;;;4.20;;
17566;SDS011;8901;52.088;5.084;2023-06-04T05:44:38;5.67;;;4.20;;
17566;SDS011;8901;52.088;5.084;2023-06-04T05:47:05;6.50;;;4.40;;
17566;SDS011;8901;52.088;5.084;2023-06-04T05:49:34;5.77;;;4.40;;
17566;SDS011;8901;52.088;5.084;2023-06-04T05:52:17;5.90;;;4.10;;
17566;SDS011;8901;52.088;5.084;2023-06-04T05:54:45;6.63;;;4.43;;
17566;SDS011;8901;52.088;5.084;2023-06-04T05:57:12;7.03;;;4.83;;
17566;SDS011;8901;52.088;5.084;2023-06-04T05:59:40;5.20;;;4.70;;
17566;SDS011;8901;52.088;5.084;2023-06-04T06:02:19;8.70;;;4.47;;
17566;SDS011;8901;52.088;5.084;2023-06-04T06:04:48;4.77;;;4.30;;
17566;SDS011;8901;52.088;5.084;2023-06-04T06:07:15;5.27;;;4.77;;
17566;SDS011;8901;52.088;5.084;2023-06-04T06:09:44;10.13;;;5.53;;
17566;SDS011;8901;52.088;5.084;2023-06-04T06:12:11;6.97;;;4.97;;
17566;SDS011;8901;52.088;5.084;2023-06-04T06:14:38;7.20;;;5.50;;
17566;SDS011;8901;52.088;5.084;2023-06-04T06:17:06;7.77;;;5.03;;
17566;SDS011;8901;52.088;5.084;2023-06-04T06:19:34;6.40;;;5.80;;
17566;SDS011;8901;52.088;5.084;2023-06-04T06:22:02;6.63;;;4.80;;
17566;SDS011;8901;52.088;5.084;2023-06-04T06:24:29;6.20;;;5.50;;
17566;SDS011;8901;52.088;5.084;2023-06-04T06:26:57;7.07;;;5.43;;
17566;SDS011;8901;52.088;5.084;2023-06-04T06:29:24;7.93;;;5.80;;
17566;SDS011;8901;52.088;5.084;2023-06-04T06:31:51;7.07;;;6.00;;
17566;SDS011;8901;52.088;5.084;2023-06-04T06:34:19;8.30;;;6.70;;
17566;SDS011;8901;52.088;5.084;2023-06-04T06:36:46;6.47;;;5.87;;
17566;SDS011;8901;52.088;5.084;2023-06-04T06:39:14;7.97;;;6.73;;
17566;SDS011;8901;52.088;5.084;2023-06-04T06:41:42;6.40;;;5.80;;
17566;SDS011;8901;52.088;5.084;2023-06-04T06:44:09;7.97;;;6.20;;
17566;SDS011;8901;52.088;5.084;2023-06-04T06:46:36;7.93;;;6.93;;
17566;SDS011;8901;52.088;5.084;2023-06-04T06:49:03;8.07;;;7.27;;
17566;SDS011;8901;52.088;5.084;2023-06-04T06:51:31;7.20;;;6.70;;
17566;SDS011;8901;52.088;5.084;2023-06-04T06:53:58;8.27;;;7.40;;
17566;SDS011;8901;52.088;5.084;2023-06-04T06:56:26;8.27;;;7.57;;
17566;SDS011;8901;52.088;5.084;2023-06-04T06:58:55;8.53;;;7.60;;
17566;SDS011;8901;52.088;5.084;2023-06-04T07:01:22;8.93;;;8.03;;
17566;SDS011;8901;52.088;5.084;2023-06-04T07:03:50;14.53;;;9.10;;
17566;SDS011;8901;52.088;5.084;2023-06-04T07:06:17;9.70;;;8.83;;
17566;SDS011;8901;52.088;5.084;2023-06-04T07:08:44;10.83;;;9.93;;
17566;SDS011;8901;52.088;5.084;2023-06-04T07:11:13;11.20;;;10.10;;
17566;SDS011;8901;52.088;5.084;2023-06-04T07:13:43;10.17;;;9.23;;
17566;SDS011;8901;52.088;5.084;2023-06-04T07:16:10;11.13;;;10.13;;
17566;SDS011;8901;52.088;5.084;2023-06-04T07:18:37;10.90;;;10.10;;
17566;SDS011;8901;52.088;5.084;2023-06-04T07:21:04;11.60;;;10.70;;
17566;SDS011;8901;52.088;5.084;2023-06-04T07:26:35;12.50;;;11.60;;
17566;SDS011;8901;52.088;5.084;2023-06-04T07:29:04;13.50;;;12.30;;
17566;SDS011;8901;52.088;5.084;2023-06-04T07:31:31;13.13;;;12.13;;
17566;SDS011;8901;52.088;5.084;2023-06-04T07:33:58;13.73;;;12.80;;
17566;SDS011;8901;52.088;5.084;2023-06-04T07:36:25;14.13;;;13.00;;
17566;SDS011;8901;52.088;5.084;2023-06-04T07:38:53;15.23;;;13.87;;
17566;SDS011;8901;52.088;5.084;2023-06-04T07:41:20;14.63;;;13.60;;
17566;SDS011;8901;52.088;5.084;2023-06-04T07:43:51;14.60;;;13.60;;
17566;SDS011;8901;52.088;5.084;2023-06-04T07:46:20;15.13;;;14.10;;
17566;SDS011;8901;52.088;5.084;2023-06-04T07:48:48;15.40;;;14.20;;
17566;SDS011;8901;52.088;5.084;2023-06-04T07:51:15;15.50;;;14.47;;
17566;SDS011;8901;52.088;5.084;2023-06-04T07:53:44;15.10;;;13.87;;
17566;SDS011;8901;52.088;5.084;2023-06-04T07:56:11;15.33;;;14.17;;
17566;SDS011;8901;52.088;5.084;2023-06-04T07:58:39;16.20;;;15.00;;
17566;SDS011;8901;52.088;5.084;2023-06-04T08:01:06;16.37;;;15.10;;
17566;SDS011;8901;52.088;5.084;2023-06-04T08:03:35;16.17;;;15.03;;
17566;SDS011;8901;52.088;5.084;2023-06-04T08:06:16;17.20;;;15.90;;
17566;SDS011;8901;52.088;5.084;2023-06-04T08:08:43;17.40;;;16.30;;
17566;SDS011;8901;52.088;5.084;2023-06-04T08:11:11;17.20;;;16.20;;
17566;SDS011;8901;52.088;5.084;2023-06-04T08:13:39;17.93;;;16.70;;
17566;SDS011;8901;52.088;5.084;2023-06-04T08:16:06;17.63;;;16.53;;
17566;SDS011;8901;52.088;5.084;2023-06-04T08:18:38;17.23;;;16.03;;
17566;SDS011;8901;52.088;5.084;2023-06-04T08:21:08;18.17;;;16.80;;
17566;SDS011;8901;52.088;5.084;2023-06-04T08:23:35;17.77;;;16.77;;
17566;SDS011;8901;52.088;5.084;2023-06-04T08:26:06;18.23;;;16.93;;
17566;SDS011;8901;52.088;5.084;2023-06-04T08:28:36;18.33;;;17.10;;
17566;SDS011;8901;52.088;5.084;2023-06-04T08:31:05;18.83;;;17.53;;
17566;SDS011;8901;52.088;5.084;2023-06-04T08:33:32;18.60;;;17.30;;
17566;SDS011;8901;52.088;5.084;2023-06-04T08:36:03;18.80;;;17.60;;
17566;SDS011;8901;52.088;5.084;2023-06-04T08:38:31;19.57;;;18.17;;
17566;SDS011;8901;52.088;5.084;2023-06-04T08:41:04;19.63;;;18.23;;
17566;SDS011;8901;52.088;5.084;2023-06-04T08:43:35;19.37;;;18.07;;
17566;SDS011;8901;52.088;5.084;2023-06-04T08:49:06;19.83;;;18.53;;
17566;SDS011;8901;52.088;5.084;2023-06-04T08:54:38;19.57;;;18.37;;
17566;SDS011;8901;52.088;5.084;2023-06-04T08:57:06;19.40;;;18.07;;
17566;SDS011;8901;52.088;5.084;2023-06-04T08:59:35;20.63;;;19.10;;
17566;SDS011;8901;52.088;5.084;2023-06-04T09:02:03;19.80;;;18.60;;
17566;SDS011;8901;52.088;5.084;2023-06-04T09:04:47;20.37;;;19.07;;
17566;SDS011;8901;52.088;5.084;2023-06-04T09:07:21;20.17;;;18.90;;
17566;SDS011;8901;52.088;5.084;2023-06-04T09:09:50;21.13;;;19.17;;
17566;SDS011;8901;52.088;5.084;2023-06-04T09:12:24;20.10;;;18.80;;
17566;SDS011;8901;52.088;5.084;2023-06-04T09:14:51;21.07;;;19.67;;
17566;SDS011;8901;52.088;5.084;2023-06-04T09:17:21;20.83;;;19.53;;
17566;SDS011;8901;52.088;5.084;2023-06-04T09:19:48;20.03;;;18.67;;
17566;SDS011;8901;52.088;5.084;2023-06-04T09:22:16;20.83;;;19.47;;
17566;SDS011;8901;52.088;5.084;2023-06-04T09:24:44;20.67;;;19.37;;
17566;SDS011;8901;52.088;5.084;2023-06-04T09:27:14;21.43;;;19.87;;
17566;SDS011;8901;52.088;5.084;2023-06-04T09:29:48;21.20;;;19.80;;
17566;SDS011;8901;52.088;5.084;2023-06-04T09:32:20;19.47;;;18.37;;
17566;SDS011;8901;52.088;5.084;2023-06-04T09:34:47;21.70;;;20.40;;
17566;SDS011;8901;52.088;5.084;2023-06-04T09:37:14;21.57;;;19.80;;
17566;SDS011;8901;52.088;5.084;2023-06-04T09:39:42;20.73;;;19.53;;
17566;SDS011;8901;52.088;5.084;2023-06-04T09:42:09;22.07;;;20.20;;
17566;SDS011;8901;52.088;5.084;2023-06-04T09:44:43;20.97;;;19.77;;
17566;SDS011;8901;52.088;5.084;2023-06-04T09:47:11;21.53;;;20.23;;
17566;SDS011;8901;52.088;5.084;2023-06-04T09:49:41;21.17;;;19.77;;
17566;SDS011;8901;52.088;5.084;2023-06-04T09:52:08;21.33;;;19.80;;
17566;SDS011;8901;52.088;5.084;2023-06-04T09:54:36;21.85;;;20.48;;
17566;SDS011;8901;52.088;5.084;2023-06-04T09:57:04;22.00;;;20.60;;
17566;SDS011;8901;52.088;5.084;2023-06-04T09:59:32;22.47;;;21.13;;
17566;SDS011;8901;52.088;5.084;2023-06-04T10:02:04;21.03;;;19.73;;
17566;SDS011;8901;52.088;5.084;2023-06-04T10:04:33;21.87;;;20.57;;
17566;SDS011;8901;52.088;5.084;2023-06-04T10:07:02;22.13;;;20.83;;
17566;SDS011;8901;52.088;5.084;2023-06-04T10:09:30;20.97;;;19.67;;
17566;SDS011;8901;52.088;5.084;2023-06-04T10:18:01;21.73;;;20.37;;
17566;SDS011;8901;52.088;5.084;2023-06-04T10:20:31;21.47;;;20.07;;
17566;SDS011;8901;52.088;5.084;2023-06-04T10:22:58;21.15;;;19.75;;
17566;SDS011;8901;52.088;5.084;2023-06-04T10:25:26;20.40;;;19.20;;
17566;SDS011;8901;52.088;5.084;2023-06-04T10:27:53;20.88;;;19.58;;
17566;SDS011;8901;52.088;5.084;2023-06-04T10:36:20;20.35;;;19.13;;
17566;SDS011;8901;52.088;5.084;2023-06-04T10:38:48;20.85;;;19.65;;
17566;SDS011;8901;52.088;5.084;2023-06-04T10:41:16;20.40;;;18.95;;
17566;SDS011;8901;52.088;5.084;2023-06-04T10:43:43;21.23;;;20.02;;
17566;SDS011;8901;52.088;5.084;2023-06-04T10:46:14;21.50;;;19.98;;
17566;SDS011;8901;52.088;5.084;2023-06-04T10:48:45;21.73;;;20.17;;
17566;SDS011;8901;52.088;5.084;2023-06-04T10:51:12;21.10;;;19.75;;
17566;SDS011;8901;52.088;5.084;2023-06-04T10:53:42;22.13;;;20.73;;
17566;SDS011;8901;52.088;5.084;2023-06-04T10:56:09;21.20;;;19.67;;
17566;SDS011;8901;52.088;5.084;2023-06-04T10:58:36;21.33;;;19.80;;
17566;SDS011;8901;52.088;5.084;2023-06-04T11:01:04;21.15;;;19.65;;
17566;SDS011;8901;52.088;5.084;2023-06-04T11:03:34;21.73;;;20.42;;
17566;SDS011;8901;52.088;5.084;2023-06-04T11:06:02;21.33;;;19.67;;
17566;SDS011;8901;52.088;5.084;2023-06-04T11:08:29;20.88;;;19.60;;
17566;SDS011;8901;52.088;5.084;2023-06-04T11:10:58;21.58;;;20.15;;
17566;SDS011;8901;52.088;5.084;2023-06-04T11:13:26;21.17;;;19.95;;
17566;SDS011;8901;52.088;5.084;2023-06-04T11:15:53;22.40;;;21.10;;
17566;SDS011;8901;52.088;5.084;2023-06-04T11:21:28;21.58;;;20.30;;
17566;SDS011;8901;52.088;5.084;2023-06-04T11:26:47;21.90;;;20.60;;
17566;SDS011;8901;52.088;5.084;2023-06-04T11:29:14;22.05;;;20.55;;
17566;SDS011;8901;52.088;5.084;2023-06-04T11:31:42;21.60;;;20.38;;
17566;SDS011;8901;52.088;5.084;2023-06-04T11:34:09;20.85;;;19.65;;
17566;SDS011;8901;52.088;5.084;2023-06-04T11:36:38;20.67;;;19.48;;
17566;SDS011;8901;52.088;5.084;2023-06-04T11:39:06;21.88;;;20.50;;
17566;SDS011;8901;52.088;5.084;2023-06-04T11:41:33;22.40;;;20.75;;
17566;SDS011;8901;52.088;5.084;2023-06-04T11:44:03;22.13;;;20.70;;
17566;SDS011;8901;52.088;5.084;2023-06-04T11:46:31;21.13;;;19.73;;
17566;SDS011;8901;52.088;5.084;2023-06-04T11:48:59;21.13;;;19.70;;
17566;SDS011;8901;52.088;5.084;2023-06-04T11:51:26;21.80;;;20.30;;
17566;SDS011;8901;52.088;5.084;2023-06-04T11:53:54;22.30;;;20.55;;
17566;SDS011;8901;52.088;5.084;2023-06-04T11:56:22;20.38;;;18.85;;
17566;SDS011;8901;52.088;5.084;2023-06-04T11:58:50;21.95;;;20.15;;
17566;SDS011;8901;52.088;5.084;2023-06-04T12:01:20;20.05;;;18.70;;
17566;SDS011;8901;52.088;5.084;2023-06-04T12:03:48;21.58;;;19.90;;
17566;SDS011;8901;52.088;5.084;2023-06-04T12:06:15;19.95;;;18.13;;
17566;SDS011;8901;52.088;5.084;2023-06-04T12:08:45;20.55;;;18.95;;
17566;SDS011;8901;52.088;5.084;2023-06-04T12:17:06;19.73;;;18.13;;
17566;SDS011;8901;52.088;5.084;2023-06-04T12:31:18;20.70;;;19.15;;
17566;SDS011;8901;52.088;5.084;2023-06-04T12:33:50;20.98;;;19.00;;
17566;SDS011;8901;52.088;5.084;2023-06-04T12:36:19;20.40;;;18.83;;
17566;SDS011;8901;52.088;5.084;2023-06-04T12:42:02;22.15;;;20.20;;
17566;SDS011;8901;52.088;5.084;2023-06-04T12:50:53;21.85;;;20.15;;
17566;SDS011;8901;52.088;5.084;2023-06-04T12:56:24;21.58;;;20.08;;
17566;SDS011;8901;52.088;5.084;2023-06-04T13:04:47;21.67;;;20.23;;
17566;SDS011;8901;52.088;5.084;2023-06-04T13:13:31;21.67;;;20.17;;
17566;SDS011;8901;52.088;5.084;2023-06-04T13:15:58;21.85;;;20.35;;
17566;SDS011;8901;52.088;5.084;2023-06-04T13:21:27;22.15;;;20.75;;
17566;SDS011;8901;52.088;5.084;2023-06-04T13:26:59;22.17;;;20.67;;
17566;SDS011;8901;52.088;5.084;2023-06-04T13:29:30;22.85;;;21.35;;
17566;SDS011;8901;52.088;5.084;2023-06-04T13:32:13;22.52;;;20.92;;
17566;SDS011;8901;52.088;5.084;2023-06-04T13:34:40;23.90;;;21.80;;
17566;SDS011;8901;52.088;5.084;2023-06-04T13:37:24;22.33;;;20.73;;
17566;SDS011;8901;52.088;5.084;2023-06-04T13:39:51;22.35;;;20.70;;
17566;SDS011;8901;52.088;5.084;2023-06-04T13:42:19;22.65;;;21.15;;
17566;SDS011;8901;52.088;5.084;2023-06-04T13:44:48;22.60;;;21.27;;
17566;SDS011;8901;52.088;5.084;2023-06-04T13:47:15;22.85;;;21.40;;
17566;SDS011;8901;52.088;5.084;2023-06-04T13:49:43;22.67;;;21.38;;
17566;SDS011;8901;52.088;5.084;2023-06-04T13:52:10;23.13;;;21.48;;
17566;SDS011;8901;52.088;5.084;2023-06-04T13:54:38;23.42;;;21.88;;
17566;SDS011;8901;52.088;5.084;2023-06-04T13:57:05;21.33;;;20.08;;
17566;SDS011;8901;52.088;5.084;2023-06-04T13:59:36;22.30;;;20.60;;
17566;SDS011;8901;52.088;5.084;2023-06-04T14:02:05;22.95;;;21.23;;
17566;SDS011;8901;52.088;5.084;2023-06-04T14:04:33;23.42;;;21.98;;
17566;SDS011;8901;52.088;5.084;2023-06-04T14:07:00;23.05;;;21.55;;
17566;SDS011;8901;52.088;5.084;2023-06-04T14:09:27;22.30;;;20.73;;
17566;SDS011;8901;52.088;5.084;2023-06-04T14:11:55;21.58;;;20.17;;
17566;SDS011;8901;52.088;5.084;2023-06-04T14:14:22;22.88;;;21.15;;
17566;SDS011;8901;52.088;5.084;2023-06-04T14:16:50;22.80;;;21.42;;
17566;SDS011;8901;52.088;5.084;2023-06-04T14:19:21;22.15;;;20.85;;
17566;SDS011;8901;52.088;5.084;2023-06-04T14:21:48;21.38;;;20.15;;
17566;SDS011;8901;52.088;5.084;2023-06-04T14:24:15;22.48;;;21.10;;
17566;SDS011;8901;52.088;5.084;2023-06-04T14:26:43;21.63;;;20.10;;
17566;SDS011;8901;52.088;5.084;2023-06-04T14:29:13;21.80;;;20.40;;
17566;SDS011;8901;52.088;5.084;2023-06-04T14:31:41;21.85;;;20.45;;
17566;SDS011;8901;52.088;5.084;2023-06-04T14:34:08;21.50;;;20.10;;
17566;SDS011;8901;52.088;5.084;2023-06-04T14:36:37;21.15;;;19.85;;
17566;SDS011;8901;52.088;5.084;2023-06-04T14:39:04;22.00;;;20.70;;
17566;SDS011;8901;52.088;5.084;2023-06-04T14:41:32;22.10;;;20.55;;
17566;SDS011;8901;52.088;5.084;2023-06-04T14:43:59;21.17;;;19.77;;
17566;SDS011;8901;52.088;5.084;2023-06-04T14:46:26;21.90;;;20.50;;
17566;SDS011;8901;52.088;5.084;2023-06-04T14:48:53;21.58;;;20.27;;
17566;SDS011;8901;52.088;5.084;2023-06-04T14:51:21;20.27;;;19.08;;
17566;SDS011;8901;52.088;5.084;2023-06-04T14:53:50;21.67;;;20.27;;
17566;SDS011;8901;52.088;5.084;2023-06-04T14:56:17;20.88;;;19.38;;
17566;SDS011;8901;52.088;5.084;2023-06-04T14:58:45;21.60;;;20.27;;
17566;SDS011;8901;52.088;5.084;2023-06-04T15:01:13;21.15;;;19.63;;
17566;SDS011;8901;52.088;5.084;2023-06-04T15:03:41;21.35;;;19.85;;
17566;SDS011;8901;52.088;5.084;2023-06-04T15:06:08;20.95;;;19.65;;
17566;SDS011;8901;52.088;5.084;2023-06-04T15:08:35;20.85;;;19.65;;
17566;SDS011;8901;52.088;5.084;2023-06-04T15:11:04;21.27;;;19.95;;
17566;SDS011;8901;52.088;5.084;2023-06-04T15:13:32;22.42;;;20.92;;
17566;SDS011;8901;52.088;5.084;2023-06-04T15:15:59;21.35;;;19.85;;
17566;SDS011;8901;52.088;5.084;2023-06-04T15:18:26;21.23;;;19.65;;
17566;SDS011;8901;52.088;5.084;2023-06-04T15:20:53;20.58;;;19.25;;
17566;SDS011;8901;52.088;5.084;2023-06-04T15:23:21;20.73;;;19.50;;
17566;SDS011;8901;52.088;5.084;2023-06-04T15:25:48;20.25;;;19.05;;
17566;SDS011;8901;52.088;5.084;2023-06-04T15:28:17;21.92;;;20.40;;
17566;SDS011;8901;52.088;5.084;2023-06-04T15:30:45;21.25;;;19.65;;
17566;SDS011;8901;52.088;5.084;2023-06-04T15:33:12;21.10;;;19.50;;
17566;SDS011;8901;52.088;5.084;2023-06-04T15:35:41;21.50;;;20.00;;
17566;SDS011;8901;52.088;5.084;2023-06-04T15:38:08;21.33;;;19.70;;
17566;SDS011;8901;52.088;5.084;2023-06-04T15:40:36;20.92;;;19.42;;
17566;SDS011;8901;52.088;5.084;2023-06-04T15:43:03;20.90;;;19.55;;
17566;SDS011;8901;52.088;5.084;2023-06-04T15:45:32;20.05;;;18.85;;
17566;SDS011;8901;52.088;5.084;2023-06-04T15:47:59;20.05;;;18.75;;
17566;SDS011;8901;52.088;5.084;2023-06-04T15:50:26;21.38;;;19.90;;
17566;SDS011;8901;52.088;5.084;2023-06-04T15:52:54;20.33;;;18.88;;
17566;SDS011;8901;52.088;5.084;2023-06-04T15:55:21;19.77;;;18.17;;
17566;SDS011;8901;52.088;5.084;2023-06-04T15:57:48;19.63;;;18.40;;
17566;SDS011;8901;52.088;5.084;2023-06-04T16:00:15;19.67;;;18.27;;
17566;SDS011;8901;52.088;5.084;2023-06-04T16:02:44;20.23;;;18.95;;
17566;SDS011;8901;52.088;5.084;2023-06-04T16:05:11;19.95;;;18.70;;
17566;SDS011;8901;52.088;5.084;2023-06-04T16:07:39;18.92;;;17.73;;
17566;SDS011;8901;52.088;5.084;2023-06-04T16:10:07;19.75;;;18.48;;
17566;SDS011;8901;52.088;5.084;2023-06-04T16:12:34;19.40;;;18.10;;
17566;SDS011;8901;52.088;5.084;2023-06-04T16:15:01;19.50;;;18.20;;
17566;SDS011;8901;52.088;5.084;2023-06-04T16:17:29;19.48;;;18.17;;
17566;SDS011;8901;52.088;5.084;2023-06-04T16:20:00;20.08;;;18.80;;
17566;SDS011;8901;52.088;5.084;2023-06-04T16:22:28;19.40;;;18.10;;
17566;SDS011;8901;52.088;5.084;2023-06-04T16:24:55;18.50;;;17.23;;
17566;SDS011;8901;52.088;5.084;2023-06-04T16:27:22;18.45;;;17.25;;
17566;SDS011;8901;52.088;5.084;2023-06-04T16:29:49;19.05;;;17.75;;
17566;SDS011;8901;52.088;5.084;2023-06-04T16:32:17;18.58;;;17.27;;
17566;SDS011;8901;52.088;5.084;2023-06-04T16:34:44;18.13;;;16.83;;
17566;SDS011;8901;52.088;5.084;2023-06-04T16:37:13;17.95;;;16.80;;
17566;SDS011;8901;52.088;5.084;2023-06-04T16:39:41;18.42;;;16.90;;
17566;SDS011;8901;52.088;5.084;2023-06-04T16:42:11;18.67;;;17.33;;
17566;SDS011;8901;52.088;5.084;2023-06-04T16:44:38;18.15;;;16.85;;